createdAt,value
2019-03-30T05:54:42.966Z,38.70
2019-03-30T05:57:11.250Z,34.92
2019-03-30T05:59:39.523Z,30.35
2019-03-30T06:02:07.805Z,32.58
2019-03-30T06:04:36.073Z,32.35
2019-03-30T06:07:04.352Z,36.00
2019-03-30T06:09:32.578Z,31.00
2019-03-30T06:12:00.908Z,34.70
2019-03-30T06:14:29.363Z,32.88
2019-03-30T06:16:57.620Z,30.80
2019-03-30T06:19:25.844Z,32.53
2019-03-30T06:21:54.064Z,30.60
2019-03-30T06:24:22.372Z,28.62
2019-03-30T06:26:50.654Z,28.90
2019-03-30T06:29:18.894Z,27.60
2019-03-30T06:31:47.194Z,37.23
2019-03-30T06:34:15.439Z,35.85
2019-03-30T06:36:43.855Z,34.03
2019-03-30T06:39:12.103Z,32.55
2019-03-30T06:41:40.336Z,36.42
2019-03-30T06:44:08.603Z,34.75
2019-03-30T06:46:39.393Z,34.78
2019-03-30T06:49:06.822Z,35.60
2019-03-30T06:51:35.171Z,35.45
2019-03-30T06:54:03.420Z,34.33
2019-03-30T06:56:31.636Z,33.58
2019-03-30T06:58:59.961Z,32.40
2019-03-30T07:01:28.236Z,34.63
2019-03-30T07:03:56.493Z,32.80
2019-03-30T07:06:25.111Z,32.30
2019-03-30T07:08:54.651Z,32.73
2019-03-30T07:11:23.444Z,29.72
2019-03-30T07:13:51.675Z,31.85
2019-03-30T07:16:20.078Z,31.05
2019-03-30T07:18:48.314Z,30.88
2019-03-30T07:21:16.533Z,30.80
2019-03-30T07:23:44.776Z,27.22
2019-03-30T07:26:12.980Z,30.10
2019-03-30T07:28:41.200Z,29.67
2019-03-30T07:31:09.422Z,28.30
2019-03-30T07:33:37.637Z,29.65
2019-03-30T07:36:06.057Z,31.97
2019-03-30T07:38:34.279Z,28.23
2019-03-30T07:41:02.520Z,29.52
2019-03-30T07:43:30.741Z,27.90
2019-03-30T07:45:58.981Z,27.10
2019-03-30T07:48:27.200Z,27.27
2019-03-30T07:50:55.483Z,27.45
2019-03-30T07:53:26.652Z,25.92
2019-03-30T07:56:07.414Z,26.77
2019-03-30T07:58:23.740Z,27.80
2019-03-30T08:00:51.987Z,27.52
2019-03-30T08:03:20.284Z,24.77
2019-03-30T08:05:48.506Z,24.35
2019-03-30T08:08:16.739Z,24.43
2019-03-30T08:10:44.970Z,25.50
2019-03-30T08:13:13.333Z,22.40
2019-03-30T08:15:41.519Z,22.55
2019-03-30T08:18:09.766Z,23.25
2019-03-30T08:20:37.993Z,23.32
2019-03-30T08:23:06.320Z,24.77
2019-03-30T08:25:34.540Z,26.62
2019-03-30T08:28:02.810Z,22.75
2019-03-30T08:30:31.027Z,22.27
2019-03-30T08:32:59.285Z,24.25
2019-03-30T08:35:27.521Z,22.70
2019-03-30T08:37:55.822Z,22.65
2019-03-30T08:40:24.224Z,25.77
2019-03-30T08:42:52.554Z,21.45
2019-03-30T08:45:20.865Z,22.15
2019-03-30T08:47:49.120Z,21.95
2019-03-30T08:50:17.351Z,22.48
2019-03-30T08:52:45.940Z,21.65
2019-03-30T08:55:14.181Z,23.55
2019-03-30T08:57:42.412Z,22.73
2019-03-30T09:00:10.717Z,22.65
2019-03-30T09:02:38.951Z,22.48
2019-03-30T09:05:07.659Z,22.67
2019-03-30T09:07:35.930Z,22.32
2019-03-30T09:10:06.438Z,21.65
2019-03-30T09:12:34.724Z,23.67
2019-03-30T09:15:03.511Z,22.30
2019-03-30T09:17:31.759Z,22.60
2019-03-30T09:20:00.049Z,23.40
2019-03-30T09:22:28.330Z,23.62
2019-03-30T09:24:56.604Z,20.52
2019-03-30T09:27:24.895Z,19.25
2019-03-30T09:29:53.174Z,20.30
2019-03-30T09:32:21.456Z,21.85
2019-03-30T09:34:49.757Z,21.68
2019-03-30T09:37:18.018Z,22.00
2019-03-30T09:39:46.297Z,24.85
2019-03-30T09:42:14.584Z,18.50
2019-03-30T09:44:42.848Z,19.65
2019-03-30T09:47:11.122Z,22.45
2019-03-30T09:49:39.416Z,22.20
2019-03-30T09:52:07.672Z,20.72
2019-03-30T09:54:35.991Z,20.90
2019-03-30T09:57:04.278Z,20.32
2019-03-30T09:59:32.576Z,24.12
2019-03-30T10:02:00.870Z,19.75
2019-03-30T10:04:29.541Z,22.98
2019-03-30T10:06:57.826Z,23.18
2019-03-30T10:09:26.109Z,23.80
2019-03-30T10:11:54.511Z,21.70
2019-03-30T10:14:22.796Z,23.25
2019-03-30T10:16:51.025Z,22.82
2019-03-30T10:19:20.190Z,21.85
2019-03-30T10:21:49.390Z,22.13
2019-03-30T10:24:17.679Z,19.67
2019-03-30T10:30:26.285Z,25.65
2019-03-30T10:32:54.576Z,25.30
2019-03-30T10:35:22.857Z,24.60
2019-03-30T10:37:51.126Z,31.07
2019-03-30T10:40:20.829Z,25.10
2019-03-30T10:42:49.560Z,24.95
2019-03-30T10:45:17.815Z,27.77
2019-03-30T10:47:46.035Z,25.88
2019-03-30T10:50:15.230Z,24.50
2019-03-30T10:52:43.505Z,26.48
2019-03-30T10:55:11.708Z,19.02
2019-03-30T10:57:40.237Z,22.73
2019-03-30T11:00:09.523Z,30.80
2019-03-30T11:02:38.948Z,31.48
2019-03-30T11:05:07.616Z,26.15
2019-03-30T11:07:35.838Z,25.95
2019-03-30T11:10:06.228Z,26.37
2019-03-30T11:12:34.521Z,24.75
2019-03-30T11:15:03.275Z,21.87
2019-03-30T11:17:31.482Z,27.82
2019-03-30T11:19:59.996Z,18.02
2019-03-30T11:22:28.313Z,31.57
2019-03-30T11:25:07.280Z,28.35
2019-03-30T11:27:26.780Z,26.15
2019-03-30T11:29:55.087Z,25.55
2019-03-30T11:32:23.342Z,25.68
2019-03-30T11:34:51.658Z,23.00
2019-03-30T11:37:19.891Z,25.02
2019-03-30T11:39:48.146Z,26.95
2019-03-30T11:42:16.453Z,18.37
2019-03-30T11:44:44.675Z,22.22
2019-03-30T11:47:12.913Z,27.65
2019-03-30T11:49:41.146Z,19.90
2019-03-30T11:52:09.446Z,18.12
2019-03-30T11:54:37.775Z,17.82
2019-03-30T11:57:06.084Z,18.23
2019-03-30T11:59:34.311Z,27.73
2019-03-30T12:02:02.563Z,17.30
2019-03-30T12:04:30.775Z,22.17
2019-03-30T12:06:59.071Z,22.40
2019-03-30T12:09:27.315Z,35.48
2019-03-30T12:11:55.643Z,30.77
2019-03-30T12:14:23.944Z,26.10
2019-03-30T12:16:52.236Z,26.62
2019-03-30T12:19:20.654Z,27.37
2019-03-30T12:21:48.893Z,23.15
2019-03-30T12:24:17.165Z,21.90
2019-03-30T12:26:45.407Z,24.05
2019-03-30T12:29:13.999Z,24.43
2019-03-30T12:31:42.238Z,22.42
2019-03-30T12:34:12.950Z,20.70
2019-03-30T12:36:40.408Z,81.65
2019-03-30T12:39:08.700Z,63.30
2019-03-30T12:41:37.104Z,55.17
2019-03-30T12:44:05.374Z,25.97
2019-03-30T12:46:34.026Z,27.60
2019-03-30T12:58:30.942Z,18.27
2019-03-30T13:00:59.156Z,16.05
2019-03-30T13:03:27.535Z,14.95
2019-03-30T13:05:55.758Z,17.48
2019-03-30T13:08:24.289Z,16.97
2019-03-30T13:10:52.523Z,13.15
2019-03-30T13:13:20.743Z,14.53
2019-03-30T13:15:49.110Z,14.38
2019-03-30T13:18:17.472Z,16.10
2019-03-30T13:20:45.730Z,14.75
2019-03-30T13:23:13.945Z,12.75
2019-03-30T13:25:42.255Z,14.13
2019-03-30T13:28:10.886Z,13.83
2019-03-30T13:30:39.163Z,13.10
2019-03-30T13:33:07.379Z,12.10
2019-03-30T13:35:35.600Z,12.30
2019-03-30T13:38:03.831Z,13.43
2019-03-30T13:40:32.343Z,15.08
2019-03-30T13:43:00.576Z,11.93
2019-03-30T13:45:28.800Z,13.15
2019-03-30T13:47:57.064Z,12.37
2019-03-30T13:50:25.334Z,14.20
2019-03-30T13:52:53.564Z,15.30
2019-03-30T13:55:21.822Z,14.38
2019-03-30T13:57:50.046Z,11.85
2019-03-30T14:00:18.275Z,14.28
2019-03-30T14:02:46.498Z,14.35
2019-03-30T14:05:15.103Z,9.93
2019-03-30T14:07:43.407Z,12.35
2019-03-30T14:10:11.907Z,12.23
2019-03-30T14:12:40.140Z,14.98
2019-03-30T14:15:09.438Z,14.90
2019-03-30T14:17:38.185Z,11.25
2019-03-30T14:20:07.537Z,10.43
2019-03-30T14:22:36.507Z,11.28
2019-03-30T14:25:06.265Z,10.25
2019-03-30T14:27:34.506Z,11.38
2019-03-30T14:30:02.742Z,11.55
2019-03-30T14:32:30.995Z,13.38
2019-03-30T14:34:59.240Z,12.80
2019-03-30T14:37:27.497Z,11.57
2019-03-30T14:39:55.734Z,12.40
2019-03-30T14:42:24.107Z,14.05
2019-03-30T14:44:52.428Z,13.70
2019-03-30T14:47:20.819Z,14.60
2019-03-30T14:49:49.078Z,13.15
2019-03-30T14:52:17.376Z,9.28
2019-03-30T14:54:52.732Z,12.95
2019-03-30T14:57:15.740Z,11.05
2019-03-30T14:59:44.036Z,14.90
2019-03-30T15:02:12.279Z,12.88
2019-03-30T15:04:40.591Z,13.80
2019-03-30T15:07:08.902Z,14.87
2019-03-30T15:09:37.155Z,14.07
2019-03-30T15:12:05.616Z,15.75
2019-03-30T15:14:33.916Z,13.58
2019-03-30T15:17:02.169Z,13.93
2019-03-30T15:19:30.406Z,12.93
2019-03-30T15:21:59.440Z,13.00
2019-03-30T15:24:27.706Z,13.35
2019-03-30T15:27:00.084Z,15.15
2019-03-30T15:29:25.910Z,12.75
2019-03-30T15:31:54.127Z,11.50
2019-03-30T15:34:22.464Z,12.45
2019-03-30T15:36:50.708Z,10.23
2019-03-30T15:39:18.984Z,11.70
2019-03-30T15:41:47.216Z,14.25
2019-03-30T15:44:15.855Z,13.80
2019-03-30T15:46:44.122Z,12.15
2019-03-30T15:49:12.360Z,14.47
2019-03-30T15:51:40.632Z,12.68
2019-03-30T15:54:08.918Z,15.80
2019-03-30T15:56:37.163Z,13.65
2019-03-30T15:59:05.395Z,14.38
2019-03-30T16:01:33.601Z,16.30
2019-03-30T16:04:02.653Z,17.17
2019-03-30T16:06:31.111Z,14.15
2019-03-30T16:08:59.339Z,14.90
2019-03-30T16:11:27.566Z,17.67
2019-03-30T16:13:56.004Z,15.43
2019-03-30T16:16:24.282Z,14.07
2019-03-30T16:18:52.721Z,16.52
2019-03-30T16:21:20.955Z,14.95
2019-03-30T16:23:49.278Z,16.12
2019-03-30T16:26:17.648Z,16.93
2019-03-30T16:28:45.867Z,17.12
2019-03-30T16:31:14.130Z,16.90
2019-03-30T16:33:42.346Z,14.45
2019-03-30T16:36:10.583Z,13.85
2019-03-30T16:38:39.127Z,15.63
2019-03-30T16:41:07.425Z,14.98
2019-03-30T16:43:35.888Z,16.27
2019-03-30T16:46:04.106Z,14.95
2019-03-30T16:48:32.338Z,12.78
2019-03-30T16:51:00.750Z,14.38
2019-03-30T16:53:28.972Z,13.75
2019-03-30T16:55:57.209Z,12.47
2019-03-30T16:58:25.551Z,13.75
2019-03-30T17:00:56.822Z,13.93
2019-03-30T17:03:23.778Z,13.90
2019-03-30T17:05:52.021Z,14.53
2019-03-30T17:08:20.280Z,10.82
2019-03-30T17:10:48.571Z,13.48
2019-03-30T17:13:16.817Z,14.68
2019-03-30T17:15:45.127Z,12.80
2019-03-30T17:18:13.407Z,14.25
2019-03-30T17:20:41.634Z,13.98
2019-03-30T17:23:09.901Z,14.10
2019-03-30T17:25:38.178Z,12.50
2019-03-30T17:28:07.097Z,12.25
2019-03-30T17:30:35.603Z,15.48
2019-03-30T17:33:04.968Z,11.95
2019-03-30T17:35:33.270Z,13.25
2019-03-30T17:38:01.584Z,12.45
2019-03-30T17:40:30.335Z,14.65
2019-03-30T17:42:58.617Z,19.10
2019-03-30T17:45:26.836Z,19.12
2019-03-30T17:47:55.141Z,28.02
2019-03-30T17:50:23.364Z,26.40
2019-03-30T17:52:51.618Z,38.75
2019-03-30T17:55:33.006Z,40.70
2019-03-30T17:57:49.812Z,40.75
2019-03-30T18:00:21.189Z,45.35
2019-03-30T18:02:49.419Z,44.88
2019-03-30T18:05:17.670Z,42.80
2019-03-30T18:07:46.066Z,42.78
2019-03-30T18:10:14.472Z,42.27
2019-03-30T18:12:42.687Z,41.98
2019-03-30T18:15:12.410Z,38.63
2019-03-30T18:17:40.672Z,45.75
2019-03-30T18:20:09.019Z,54.75
2019-03-30T18:22:37.265Z,48.00
2019-03-30T18:25:06.258Z,49.10
2019-03-30T18:27:34.488Z,50.67
2019-03-30T18:30:02.709Z,50.52
2019-03-30T18:32:30.961Z,56.77
2019-03-30T18:34:59.205Z,55.45
2019-03-30T18:37:27.496Z,57.80
2019-03-30T18:39:55.754Z,52.73
2019-03-30T18:42:24.097Z,50.98
2019-03-30T18:44:52.336Z,53.08
2019-03-30T18:47:20.760Z,51.05
2019-03-30T18:49:49.055Z,45.95
2019-03-30T18:52:17.529Z,46.68
2019-03-30T18:54:45.794Z,46.40
2019-03-30T18:57:14.072Z,43.75
2019-03-30T18:59:42.425Z,54.30
2019-03-30T19:02:10.811Z,55.10
2019-03-30T19:04:39.061Z,45.25
2019-03-30T19:07:07.358Z,55.52
2019-03-30T19:09:35.602Z,57.85
2019-03-30T19:12:04.164Z,55.55
2019-03-30T19:14:32.395Z,56.13
2019-03-30T19:17:00.637Z,56.75
2019-03-30T19:19:28.861Z,61.63
2019-03-30T19:21:57.086Z,64.58
2019-03-30T19:24:25.333Z,51.80
2019-03-30T19:26:53.638Z,61.95
2019-03-30T19:29:22.851Z,62.45
2019-03-30T19:31:51.086Z,68.62
2019-03-30T19:34:19.336Z,64.95
2019-03-30T19:36:47.558Z,59.20
2019-03-30T19:39:15.783Z,68.90
2019-03-30T19:41:44.052Z,69.42
2019-03-30T19:44:12.267Z,73.22
2019-03-30T19:46:40.483Z,61.30
2019-03-30T19:49:08.737Z,66.60
2019-03-30T19:51:36.943Z,61.55
2019-03-30T19:54:05.501Z,79.15
2019-03-30T19:56:33.844Z,73.87
2019-03-30T19:59:10.677Z,74.77
2019-03-30T20:01:32.089Z,55.73
2019-03-30T20:04:00.417Z,69.50
2019-03-30T20:06:28.680Z,70.85
2019-03-30T20:08:56.978Z,73.10
2019-03-30T20:11:25.423Z,67.95
2019-03-30T20:13:53.732Z,65.67
2019-03-30T20:16:21.990Z,67.03
2019-03-30T20:18:50.476Z,63.35
2019-03-30T20:21:18.707Z,65.40
2019-03-30T20:23:46.923Z,60.80
2019-03-30T20:26:15.154Z,60.05
2019-03-30T20:28:43.380Z,61.25
2019-03-30T20:31:11.613Z,62.93
2019-03-30T20:33:39.917Z,53.78
2019-03-30T20:36:08.144Z,60.20
2019-03-30T20:38:36.433Z,55.05
2019-03-30T20:41:04.675Z,44.80
2019-03-30T20:43:32.951Z,57.53
2019-03-30T20:46:01.186Z,48.70
2019-03-30T20:48:29.477Z,64.60
2019-03-30T20:50:57.777Z,63.00
2019-03-30T20:53:26.122Z,58.25
2019-03-30T20:55:54.377Z,68.60
2019-03-30T20:58:22.674Z,63.58
2019-03-30T21:00:50.926Z,57.88
2019-03-30T21:03:19.225Z,68.20
2019-03-30T21:05:47.557Z,63.00
2019-03-30T21:08:15.846Z,66.33
2019-03-30T21:10:44.096Z,56.60
2019-03-30T21:13:12.393Z,55.63
2019-03-30T21:15:40.649Z,53.42
2019-03-30T21:18:08.928Z,68.95
2019-03-30T21:20:37.190Z,63.00
2019-03-30T21:23:06.179Z,66.25
2019-03-30T21:25:34.440Z,68.90
2019-03-30T21:28:02.937Z,76.75
2019-03-30T21:30:31.195Z,76.72
2019-03-30T21:32:59.499Z,71.25
2019-03-30T21:35:27.781Z,78.47
2019-03-30T21:37:58.551Z,75.22
2019-03-30T21:40:26.129Z,71.92
2019-03-30T21:42:54.432Z,76.30
2019-03-30T21:45:22.688Z,77.03
2019-03-30T21:47:51.091Z,63.48
2019-03-30T21:50:19.434Z,73.75
2019-03-30T21:52:47.731Z,65.97
2019-03-30T21:55:16.014Z,68.87
2019-03-30T21:57:44.274Z,76.25
2019-03-30T22:00:14.215Z,71.50
2019-03-30T22:02:42.517Z,61.95
2019-03-30T22:05:10.825Z,65.10
2019-03-30T22:07:39.087Z,59.50
2019-03-30T22:10:08.401Z,80.30
2019-03-30T22:12:38.082Z,63.10
2019-03-30T22:15:07.031Z,72.32
2019-03-30T22:17:35.338Z,63.40
2019-03-30T22:20:04.606Z,73.12
2019-03-30T22:22:32.962Z,67.60
2019-03-30T22:25:01.251Z,77.03
2019-03-30T22:27:29.602Z,74.75
2019-03-30T22:29:57.866Z,63.87
2019-03-30T22:32:26.133Z,59.88
2019-03-30T22:34:54.402Z,59.25
2019-03-30T22:37:22.688Z,56.65
2019-03-30T22:39:50.975Z,83.15
2019-03-30T22:42:19.213Z,61.73
2019-03-30T22:44:47.518Z,70.67
2019-03-30T22:47:15.810Z,66.20
2019-03-30T22:49:44.100Z,79.90
2019-03-30T22:52:12.355Z,72.58
2019-03-30T22:54:40.633Z,61.18
2019-03-30T22:57:08.921Z,78.30
2019-03-30T22:59:37.195Z,50.30
2019-03-30T23:02:05.651Z,55.85
2019-03-30T23:04:34.315Z,69.95
2019-03-30T23:07:02.559Z,60.75
2019-03-30T23:09:30.839Z,62.20
2019-03-30T23:11:59.140Z,64.10
2019-03-30T23:14:27.364Z,59.20
2019-03-30T23:16:55.650Z,73.07
2019-03-30T23:19:23.916Z,72.45
2019-03-30T23:21:52.151Z,56.30
2019-03-30T23:24:20.452Z,75.90
2019-03-30T23:26:48.731Z,65.07
2019-03-30T23:29:16.991Z,47.40
2019-03-30T23:31:45.291Z,63.00
2019-03-30T23:34:13.572Z,61.80
2019-03-30T23:36:41.847Z,50.67
2019-03-30T23:39:10.113Z,57.60
2019-03-30T23:41:38.421Z,55.78
2019-03-30T23:44:06.683Z,58.35
2019-03-30T23:46:34.985Z,56.13
2019-03-30T23:49:03.250Z,54.90
2019-03-30T23:51:31.528Z,46.20
2019-03-30T23:53:59.789Z,48.85
2019-03-30T23:56:28.083Z,32.03
2019-03-30T23:58:56.363Z,49.95
